createdAt,value
2023-01-30T00:00:44.570Z,97837.28
2023-01-30T00:02:47.110Z,97840.72
2023-01-30T00:04:49.720Z,97836.41
2023-01-30T00:06:52.290Z,97820.09
2023-01-30T00:08:56.300Z,97812.47
2023-01-30T00:10:58.862Z,97815.88
2023-01-30T00:13:01.441Z,97821.88
2023-01-30T00:15:04.077Z,97826.91
2023-01-30T00:17:06.656Z,97820.94
2023-01-30T00:19:09.420Z,97814.97
2023-01-30T00:21:14.389Z,97809.81
2023-01-30T00:23:16.902Z,97813.16
2023-01-30T00:25:20.892Z,97810.56
2023-01-30T00:27:23.588Z,97798.59
2023-01-30T00:29:26.132Z,97795.97
2023-01-30T00:31:28.779Z,97787.38
2023-01-30T00:33:31.438Z,97788.22
2023-01-30T00:35:34.159Z,97787.53
2023-01-30T00:37:39.607Z,97785.88
2023-01-30T00:39:42.154Z,97778.94
2023-01-30T00:42:03.505Z,97783.22
2023-01-30T00:44:24.548Z,97784.00
2023-01-30T00:47:03.886Z,97779.81
2023-01-30T00:49:06.584Z,97771.50
2023-01-30T00:51:09.268Z,97783.25
2023-01-30T00:53:13.090Z,97777.25
2023-01-30T00:55:16.756Z,97767.84
2023-01-30T00:57:20.836Z,97761.06
2023-01-30T00:59:23.396Z,97762.75
2023-01-30T01:01:25.968Z,97761.97
2023-01-30T01:03:28.526Z,97762.88
2023-01-30T01:05:31.321Z,97760.19
2023-01-30T01:07:33.879Z,97764.34
2023-01-30T01:09:36.495Z,97765.13
2023-01-30T01:11:39.158Z,97768.81
2023-01-30T01:13:43.107Z,97777.25
2023-01-30T01:15:48.385Z,97786.59
2023-01-30T01:17:51.357Z,97791.69
2023-01-30T01:19:53.965Z,97787.44
2023-01-30T01:21:56.561Z,97787.53
2023-01-30T01:24:01.158Z,97788.28
2023-01-30T01:26:03.908Z,97803.66
2023-01-30T01:28:06.460Z,97807.88
2023-01-30T01:30:12.224Z,97814.75
2023-01-30T01:32:14.918Z,97823.28
2023-01-30T01:34:17.496Z,97831.78
2023-01-30T01:36:49.711Z,97845.50
2023-01-30T01:38:43.240Z,97848.06
2023-01-30T01:41:06.136Z,97855.72
2023-01-30T01:43:20.784Z,97854.00
2023-01-30T01:45:25.964Z,97861.72
2023-01-30T01:47:29.116Z,97860.78
2023-01-30T01:49:34.746Z,97861.63
2023-01-30T01:51:41.302Z,97865.00
2023-01-30T01:53:51.987Z,97865.72
2023-01-30T01:55:57.858Z,97869.13
2023-01-30T01:58:05.164Z,97860.72
2023-01-30T02:00:12.061Z,97853.78
2023-01-30T02:02:16.703Z,97840.03
2023-01-30T02:04:39.801Z,97849.34
2023-01-30T02:06:43.852Z,97847.59
2023-01-30T02:08:51.254Z,97835.78
2023-01-30T02:10:59.848Z,97824.59
2023-01-30T02:13:02.489Z,97830.50
2023-01-30T02:15:06.128Z,97826.34
2023-01-30T02:17:08.691Z,97832.97
2023-01-30T02:19:25.067Z,97834.69
2023-01-30T02:22:08.956Z,97838.78
2023-01-30T02:24:27.414Z,97848.31
2023-01-30T02:27:03.886Z,97838.28
2023-01-30T02:29:34.717Z,97828.81
2023-01-30T02:31:45.239Z,97814.16
2023-01-30T02:33:58.248Z,97822.59
2023-01-30T02:36:11.952Z,97825.94
2023-01-30T02:38:31.845Z,97840.34
2023-01-30T02:40:47.293Z,97844.63
2023-01-30T02:42:55.431Z,97828.44
2023-01-30T02:45:06.383Z,97828.31
2023-01-30T02:47:14.640Z,97837.75
2023-01-30T02:49:23.445Z,97830.09
2023-01-30T02:51:30.908Z,97800.09
2023-01-30T02:53:33.936Z,97805.25
2023-01-30T02:55:36.679Z,97800.97
2023-01-30T02:57:39.240Z,97818.94
2023-01-30T02:59:45.026Z,97832.47
2023-01-30T03:02:09.901Z,97821.56
2023-01-30T03:04:31.710Z,97813.94
2023-01-30T03:06:51.484Z,97824.06
2023-01-30T03:09:07.220Z,97816.66
2023-01-30T03:11:11.613Z,97813.22
2023-01-30T03:13:22.652Z,97814.84
2023-01-30T03:15:30.998Z,97812.22
2023-01-30T03:17:35.266Z,97818.38
2023-01-30T03:19:39.440Z,97823.59
2023-01-30T03:21:44.474Z,97832.50
2023-01-30T03:23:47.708Z,97822.91
2023-01-30T03:25:50.638Z,97813.34
2023-01-30T03:27:55.396Z,97794.50
2023-01-30T03:29:57.965Z,97789.34
2023-01-30T03:32:00.566Z,97776.47
2023-01-30T03:34:03.156Z,97782.81
2023-01-30T03:36:07.693Z,97804.22
2023-01-30T03:38:10.562Z,97809.97
2023-01-30T03:40:14.373Z,97796.59
2023-01-30T03:42:17.047Z,97791.31
2023-01-30T03:44:19.736Z,97771.75
2023-01-30T03:46:22.352Z,97742.22
2023-01-30T03:48:24.921Z,97718.09
2023-01-30T03:50:27.523Z,97675.53
2023-01-30T03:52:31.490Z,97651.66
2023-01-30T03:54:34.317Z,97624.31
2023-01-30T03:56:36.943Z,97651.66
2023-01-30T03:58:39.745Z,97676.50
2023-01-30T04:00:42.572Z,97707.03
2023-01-30T04:02:45.169Z,97725.66
2023-01-30T04:04:50.612Z,97736.09
2023-01-30T04:06:53.244Z,97746.34
2023-01-30T04:08:57.222Z,97748.81
2023-01-30T04:10:59.873Z,97747.91
2023-01-30T04:13:02.577Z,97736.91
2023-01-30T04:15:05.877Z,97733.56
2023-01-30T04:17:08.395Z,97730.22
2023-01-30T04:19:10.979Z,97728.72
2023-01-30T04:21:14.102Z,97716.66
2023-01-30T04:23:16.698Z,97725.38
2023-01-30T04:25:21.204Z,97739.78
2023-01-30T04:27:23.968Z,97754.16
2023-01-30T04:29:26.506Z,97748.88
2023-01-30T04:31:29.121Z,97750.78
2023-01-30T04:33:35.179Z,97745.72
2023-01-30T04:35:37.726Z,97754.31
2023-01-30T04:37:40.324Z,97753.31
2023-01-30T04:39:42.888Z,97757.75
2023-01-30T04:41:47.989Z,97752.66
2023-01-30T04:43:50.531Z,97762.13
2023-01-30T04:45:53.747Z,97767.00
2023-01-30T04:47:56.305Z,97761.09
2023-01-30T04:49:58.865Z,97761.00
2023-01-30T04:52:01.548Z,97751.59
2023-01-30T04:54:04.311Z,97735.66
2023-01-30T04:56:08.248Z,97731.41
2023-01-30T04:58:12.236Z,97738.97
2023-01-30T05:00:15.355Z,97731.19
2023-01-30T05:02:17.979Z,97732.19
2023-01-30T05:04:20.516Z,97750.97
2023-01-30T05:06:24.194Z,97734.72
2023-01-30T05:08:26.759Z,97753.19
2023-01-30T05:10:29.688Z,97755.25
2023-01-30T05:12:32.260Z,97754.28
2023-01-30T05:14:36.183Z,97756.84
2023-01-30T05:16:38.735Z,97768.75
2023-01-30T05:18:41.700Z,97773.75
2023-01-30T05:20:44.271Z,97761.81
2023-01-30T05:22:46.827Z,97757.03
2023-01-30T05:24:49.373Z,97750.97
2023-01-30T05:26:51.918Z,97740.91
2023-01-30T05:28:55.896Z,97744.25
2023-01-30T05:31:03.433Z,97734.75
2023-01-30T05:33:06.061Z,97739.97
2023-01-30T05:35:09.483Z,97725.34
2023-01-30T05:37:13.288Z,97725.25
2023-01-30T05:39:16.081Z,97723.56
2023-01-30T05:41:19.170Z,97715.06
2023-01-30T05:43:21.697Z,97710.06
2023-01-30T05:45:24.254Z,97709.19
2023-01-30T05:47:28.169Z,97703.94
2023-01-30T05:49:30.858Z,97704.69
2023-01-30T05:51:33.537Z,97708.22
2023-01-30T05:53:37.080Z,97712.53
2023-01-30T05:55:39.656Z,97704.06
2023-01-30T05:57:42.246Z,97702.38
2023-01-30T05:59:44.788Z,97706.47
2023-01-30T06:01:47.398Z,97703.03
2023-01-30T06:03:51.497Z,97696.41
2023-01-30T06:05:54.128Z,97698.06
2023-01-30T06:07:56.699Z,97703.31
2023-01-30T06:09:59.295Z,97702.13
2023-01-30T06:12:01.813Z,97699.81
2023-01-30T06:14:04.418Z,97695.66
2023-01-30T06:16:08.411Z,97691.22
2023-01-30T06:18:11.098Z,97696.25
2023-01-30T06:20:15.278Z,97696.41
2023-01-30T06:22:17.810Z,97704.06
2023-01-30T06:24:20.408Z,97704.84
2023-01-30T06:26:23.006Z,97705.88
2023-01-30T06:28:26.940Z,97693.06
2023-01-30T06:30:29.506Z,97686.91
2023-01-30T06:32:32.065Z,97675.06
2023-01-30T06:34:34.659Z,97683.66
2023-01-30T06:36:38.577Z,97678.38
2023-01-30T06:38:41.167Z,97674.94
2023-01-30T06:40:46.010Z,97674.19
2023-01-30T06:42:49.541Z,97669.09
2023-01-30T06:44:52.120Z,97672.63
2023-01-30T06:46:57.639Z,97684.69
2023-01-30T06:49:00.196Z,97687.88
2023-01-30T06:51:02.807Z,97682.81
2023-01-30T06:53:08.615Z,97684.47
2023-01-30T06:55:12.079Z,97683.56
2023-01-30T06:57:14.631Z,97679.16
2023-01-30T06:59:17.230Z,97680.13
2023-01-30T07:01:21.204Z,97669.84
2023-01-30T07:03:23.870Z,97666.41
2023-01-30T07:05:26.467Z,97661.25
2023-01-30T07:07:29.206Z,97661.47
2023-01-30T07:09:33.143Z,97655.44
2023-01-30T07:11:35.702Z,97645.22
2023-01-30T07:13:38.358Z,97650.44
2023-01-30T07:15:41.004Z,97641.88
2023-01-30T07:17:43.943Z,97627.34
2023-01-30T07:19:46.799Z,97622.25
2023-01-30T07:21:49.351Z,97636.84
2023-01-30T07:23:51.952Z,97635.97
2023-01-30T07:25:55.869Z,97647.88
2023-01-30T07:28:01.867Z,97664.06
2023-01-30T07:30:04.887Z,97676.13
2023-01-30T07:32:09.014Z,97674.41
2023-01-30T07:34:11.532Z,97676.06
2023-01-30T07:36:14.147Z,97671.19
2023-01-30T07:38:16.673Z,97669.41
2023-01-30T07:40:20.403Z,97679.69
2023-01-30T07:42:24.330Z,97687.41
2023-01-30T07:44:26.897Z,97698.44
2023-01-30T07:46:34.834Z,97691.72
2023-01-30T07:48:37.463Z,97678.16
2023-01-30T07:50:40.443Z,97673.16
2023-01-30T07:52:42.980Z,97672.19
2023-01-30T07:54:45.512Z,97686.91
2023-01-30T07:56:48.083Z,97685.13
2023-01-30T07:58:52.322Z,97685.19
2023-01-30T08:00:56.625Z,97688.66
2023-01-30T08:02:59.639Z,97687.88
2023-01-30T08:05:03.980Z,97684.47
2023-01-30T08:07:07.782Z,97693.00
2023-01-30T08:09:10.473Z,97691.34
2023-01-30T08:11:13.329Z,97683.69
2023-01-30T08:13:16.110Z,97683.69
2023-01-30T08:15:21.961Z,97672.53
2023-01-30T08:17:25.419Z,97665.69
2023-01-30T08:19:27.952Z,97666.53
2023-01-30T08:21:30.473Z,97657.13
2023-01-30T08:23:33.639Z,97674.31
2023-01-30T08:25:36.770Z,97680.31
2023-01-30T08:27:39.308Z,97680.25
2023-01-30T08:29:41.911Z,97698.31
2023-01-30T08:31:45.879Z,97693.19
2023-01-30T08:33:49.137Z,97708.59
2023-01-30T08:35:52.603Z,97710.28
2023-01-30T08:37:55.412Z,97703.44
2023-01-30T08:39:57.954Z,97680.38
2023-01-30T08:42:00.494Z,97688.09
2023-01-30T08:44:03.122Z,97689.72
2023-01-30T08:46:06.171Z,97699.13
2023-01-30T08:48:11.243Z,97686.28
2023-01-30T08:50:13.806Z,97684.56
2023-01-30T08:52:16.345Z,97688.84
2023-01-30T08:54:18.897Z,97696.56
2023-01-30T08:56:21.517Z,97706.03
2023-01-30T08:58:24.104Z,97704.31
2023-01-30T09:00:28.234Z,97711.22
2023-01-30T09:02:30.903Z,97699.31
2023-01-30T09:04:35.178Z,97691.59
2023-01-30T09:06:37.732Z,97685.56
2023-01-30T09:08:40.299Z,97677.81
2023-01-30T09:10:42.886Z,97694.09
2023-01-30T09:12:46.485Z,97676.13
2023-01-30T09:14:49.036Z,97683.00
2023-01-30T09:16:55.869Z,97685.66
2023-01-30T09:18:58.486Z,97652.25
2023-01-30T09:21:06.287Z,97646.22
2023-01-30T09:23:08.977Z,97637.69
2023-01-30T09:25:11.541Z,97647.13
2023-01-30T09:27:14.115Z,97650.56
2023-01-30T09:29:16.694Z,97641.16
2023-01-30T09:31:19.417Z,97642.00
2023-01-30T09:33:22.057Z,97660.91
2023-01-30T09:35:24.595Z,97647.13
2023-01-30T09:37:29.010Z,97662.59
2023-01-30T09:39:31.571Z,97671.19
2023-01-30T09:41:53.404Z,97651.47
2023-01-30T09:44:16.232Z,97658.34
2023-01-30T09:46:31.051Z,97644.59
2023-01-30T09:48:42.471Z,97648.03
2023-01-30T09:50:57.876Z,97655.78
2023-01-30T09:53:10.306Z,97645.47
2023-01-30T09:55:19.343Z,97636.91
2023-01-30T09:57:24.297Z,97642.91
2023-01-30T09:59:36.059Z,97636.91
2023-01-30T10:01:41.863Z,97630.91
2023-01-30T10:03:57.266Z,97618.88
2023-01-30T10:06:06.032Z,97623.19
2023-01-30T10:08:24.575Z,97624.03
2023-01-30T10:10:46.259Z,97619.72
2023-01-30T10:12:59.416Z,97602.56
2023-01-30T10:15:28.754Z,97592.28
2023-01-30T10:17:38.379Z,97603.41
2023-01-30T10:19:55.418Z,97606.00
2023-01-30T10:22:03.351Z,97571.63
2023-01-30T10:24:24.108Z,97572.47
2023-01-30T10:26:29.519Z,97567.34
2023-01-30T10:28:35.946Z,97571.63
2023-01-30T10:30:42.544Z,97568.19
2023-01-30T10:32:49.813Z,97572.50
2023-01-30T10:34:56.859Z,97557.84
2023-01-30T10:37:08.479Z,97557.84
2023-01-30T10:39:23.580Z,97562.13
2023-01-30T10:41:32.023Z,97555.25
2023-01-30T10:43:41.529Z,97546.63
2023-01-30T10:45:52.383Z,97555.25
2023-01-30T10:48:05.794Z,97560.44
2023-01-30T10:50:16.651Z,97561.28
2023-01-30T10:52:28.469Z,97564.72
2023-01-30T10:54:38.702Z,97555.25
2023-01-30T10:56:48.368Z,97546.63
2023-01-30T10:58:59.671Z,97550.94
2023-01-30T11:01:06.840Z,97544.06
2023-01-30T11:03:27.414Z,97542.31
2023-01-30T11:05:39.525Z,97549.19
2023-01-30T11:07:44.910Z,97545.72
2023-01-30T11:09:50.007Z,97556.91
2023-01-30T11:11:54.377Z,97559.50
2023-01-30T11:14:07.188Z,97557.78
2023-01-30T11:16:13.219Z,97553.44
2023-01-30T11:20:41.523Z,97549.97
2023-01-30T11:22:48.923Z,97554.28
2023-01-30T11:25:02.120Z,97543.16
2023-01-30T11:27:12.589Z,97546.56
2023-01-30T11:29:27.626Z,97550.81
2023-01-30T11:31:40.932Z,97533.59
2023-01-30T11:33:44.316Z,97537.00
2023-01-30T11:35:54.851Z,97534.41
2023-01-30T11:38:12.592Z,97522.34
2023-01-30T11:40:26.422Z,97518.00
2023-01-30T11:42:32.527Z,97527.50
2023-01-30T11:44:37.742Z,97506.84
2023-01-30T11:46:43.903Z,97509.41
2023-01-30T11:49:02.971Z,97524.91
2023-01-30T11:51:18.023Z,97511.09
2023-01-30T11:53:29.196Z,97525.69
2023-01-30T11:55:36.424Z,97524.03
2023-01-30T11:57:44.317Z,97531.81
2023-01-30T11:59:50.848Z,97532.59
2023-01-30T12:02:02.661Z,97533.47
2023-01-30T12:04:10.085Z,97544.56
2023-01-30T12:06:13.012Z,97523.06
2023-01-30T12:08:40.700Z,97517.06
2023-01-30T12:10:48.873Z,97520.47
2023-01-30T12:12:53.441Z,97511.91
2023-01-30T12:15:05.849Z,97511.00
2023-01-30T12:17:15.714Z,97518.72
2023-01-30T12:19:30.155Z,97515.34
2023-01-30T12:21:41.520Z,97518.88
2023-01-30T12:23:47.374Z,97514.56
2023-01-30T12:25:59.992Z,97512.81
2023-01-30T12:28:08.967Z,97511.97
2023-01-30T12:30:23.523Z,97516.31
2023-01-30T12:32:28.544Z,97511.09
2023-01-30T12:34:31.805Z,97504.25
2023-01-30T12:36:46.342Z,97484.47
2023-01-30T12:39:05.900Z,97483.53
2023-01-30T12:41:25.200Z,97486.13
2023-01-30T12:43:50.696Z,97487.88
2023-01-30T12:46:05.511Z,97498.25
2023-01-30T12:48:22.954Z,97499.16
2023-01-30T12:50:33.198Z,97491.38
2023-01-30T12:53:23.019Z,97485.34
2023-01-30T12:55:37.480Z,97503.44
2023-01-30T12:57:47.210Z,97503.44
2023-01-30T13:00:03.484Z,97504.34
2023-01-30T13:02:26.509Z,97502.63
2023-01-30T13:04:56.329Z,97510.34
2023-01-30T13:07:16.343Z,97513.72
2023-01-30T13:09:37.776Z,97507.69
2023-01-30T13:11:49.141Z,97522.31
2023-01-30T13:13:57.744Z,97520.63
2023-01-30T13:16:07.770Z,97534.38
2023-01-30T13:18:16.550Z,97530.09
2023-01-30T13:20:32.032Z,97534.41
2023-01-30T13:22:42.784Z,97529.16
2023-01-30T13:24:55.831Z,97532.63
2023-01-30T13:27:02.026Z,97536.97
2023-01-30T13:29:14.204Z,97554.13
2023-01-30T13:31:21.325Z,97539.53
2023-01-30T13:33:28.109Z,97537.78
2023-01-30T13:35:34.468Z,97540.44
2023-01-30T13:37:40.444Z,97539.53
2023-01-30T13:39:48.508Z,97561.91
2023-01-30T13:41:57.465Z,97562.75
2023-01-30T13:44:01.644Z,97565.34
2023-01-30T13:46:08.966Z,97568.75
2023-01-30T13:48:25.576Z,97568.78
2023-01-30T13:50:48.277Z,97573.94
2023-01-30T13:52:57.993Z,97565.41
2023-01-30T13:55:09.998Z,97567.94
2023-01-30T13:57:25.466Z,97568.81
2023-01-30T13:59:45.200Z,97561.94
2023-01-30T14:02:17.493Z,97569.59
2023-01-30T14:04:45.136Z,97577.41
2023-01-30T14:06:47.750Z,97584.25
2023-01-30T14:08:53.458Z,97585.16
2023-01-30T14:10:58.335Z,97584.28
2023-01-30T14:13:07.017Z,97575.72
2023-01-30T14:15:28.824Z,97586.88
2023-01-30T14:17:33.021Z,97590.34
2023-01-30T14:19:44.633Z,97590.31
2023-01-30T14:21:55.758Z,97602.34
2023-01-30T14:24:01.583Z,97601.50
2023-01-30T14:26:04.828Z,97597.19
2023-01-30T14:28:52.161Z,97602.38
2023-01-30T14:30:56.289Z,97611.78
2023-01-30T14:33:01.998Z,97612.66
2023-01-30T14:35:24.815Z,97620.44
2023-01-30T14:37:46.670Z,97613.59
2023-01-30T14:39:54.005Z,97626.50
2023-01-30T14:42:25.988Z,97629.97
2023-01-30T14:45:02.965Z,97623.94
2023-01-30T14:47:42.231Z,97632.53
2023-01-30T14:49:44.962Z,97643.72
2023-01-30T14:51:48.818Z,97646.31
2023-01-30T14:53:55.201Z,97659.19
2023-01-30T14:56:01.989Z,97648.03
2023-01-30T14:58:05.187Z,97648.00
2023-01-30T15:00:19.425Z,97662.63
2023-01-30T15:02:27.398Z,97663.47
2023-01-30T15:04:32.901Z,97673.81
2023-01-30T15:06:38.224Z,97675.53
2023-01-30T15:08:44.082Z,97678.09
2023-01-30T15:10:59.954Z,97681.56
2023-01-30T15:13:32.238Z,97689.25
2023-01-30T15:15:46.189Z,97701.28
2023-01-30T15:18:08.369Z,97696.13
2023-01-30T15:20:21.758Z,97702.16
2023-01-30T15:22:37.467Z,97704.72
2023-01-30T15:25:22.910Z,97703.00
2023-01-30T15:27:31.970Z,97697.84
2023-01-30T15:30:12.503Z,97713.31
2023-01-30T15:32:19.087Z,97715.91
2023-01-30T15:34:22.443Z,97725.34
2023-01-30T15:36:28.698Z,97722.78
2023-01-30T15:38:34.712Z,97714.19
2023-01-30T15:40:37.911Z,97710.75
2023-01-30T15:42:40.641Z,97709.91
2023-01-30T15:44:58.517Z,97712.47
2023-01-30T15:47:16.440Z,97722.78
2023-01-30T15:49:53.270Z,97720.19
2023-01-30T15:52:00.990Z,97725.34
2023-01-30T15:54:11.159Z,97728.78
2023-01-30T15:56:21.598Z,97720.19
2023-01-30T15:58:25.655Z,97727.88
2023-01-30T16:00:31.610Z,97729.63
2023-01-30T16:02:36.973Z,97733.91
2023-01-30T16:04:39.637Z,97734.81
2023-01-30T16:06:42.248Z,97740.78
2023-01-30T16:08:56.201Z,97750.25
2023-01-30T16:11:03.043Z,97757.13
2023-01-30T16:13:05.804Z,97746.78
2023-01-30T16:15:19.576Z,97748.53
2023-01-30T16:17:22.966Z,97749.38
2023-01-30T16:19:29.476Z,97750.25
2023-01-30T16:21:35.311Z,97748.53
2023-01-30T16:23:41.430Z,97751.97
2023-01-30T16:25:48.311Z,97744.22
2023-01-30T16:27:53.698Z,97739.94
2023-01-30T16:29:58.772Z,97744.22
2023-01-30T16:32:01.857Z,97746.81
2023-01-30T16:34:05.403Z,97753.66
2023-01-30T16:36:34.004Z,97748.53
2023-01-30T16:38:39.397Z,97751.13
2023-01-30T16:40:47.178Z,97749.41
2023-01-30T16:43:01.943Z,97758.00
2023-01-30T16:46:06.188Z,97758.00
2023-01-30T16:48:25.466Z,97776.03
2023-01-30T16:50:28.150Z,97781.16
2023-01-30T16:52:37.006Z,97782.03
2023-01-30T16:54:46.134Z,97797.47
2023-01-30T16:56:52.461Z,97802.66
2023-01-30T16:58:59.002Z,97817.25
2023-01-30T17:01:03.437Z,97802.66
2023-01-30T17:03:08.321Z,97800.06
2023-01-30T17:05:19.520Z,97809.50
2023-01-30T17:07:35.999Z,97811.19
2023-01-30T17:09:42.923Z,97812.09
2023-01-30T17:11:45.509Z,97809.50
2023-01-30T17:13:48.271Z,97809.50
2023-01-30T17:15:52.236Z,97805.19
2023-01-30T17:17:54.804Z,97807.75
2023-01-30T17:19:59.530Z,97810.31
2023-01-30T17:22:04.109Z,97807.78
2023-01-30T17:24:07.788Z,97810.34
2023-01-30T17:26:12.955Z,97821.53
2023-01-30T17:28:21.033Z,97824.09
2023-01-30T17:30:23.690Z,97826.66
2023-01-30T17:32:27.804Z,97829.25
2023-01-30T17:34:30.324Z,97836.13
2023-01-30T17:36:32.930Z,97835.31
2023-01-30T17:38:35.522Z,97841.25
2023-01-30T17:40:39.242Z,97838.66
2023-01-30T17:42:41.816Z,97837.81
2023-01-30T17:44:44.486Z,97838.69
2023-01-30T17:46:48.918Z,97849.84
2023-01-30T17:48:52.859Z,97847.25
2023-01-30T17:50:55.430Z,97858.38
2023-01-30T17:52:57.986Z,97867.03
2023-01-30T17:55:00.583Z,97863.63
2023-01-30T17:57:05.118Z,97862.75
2023-01-30T17:59:13.582Z,97863.63
2023-01-30T18:01:17.870Z,97873.06
2023-01-30T18:03:20.564Z,97870.50
2023-01-30T18:05:24.660Z,97881.63
2023-01-30T18:07:30.289Z,97873.88
2023-01-30T18:09:33.500Z,97887.69
2023-01-30T18:11:36.178Z,97886.81
2023-01-30T18:13:40.460Z,97876.50
2023-01-30T18:15:43.086Z,97877.34
2023-01-30T18:17:47.939Z,97870.50
2023-01-30T18:19:50.543Z,97875.63
2023-01-30T18:21:54.491Z,97884.19
2023-01-30T18:23:57.149Z,97897.97
2023-01-30T18:25:59.741Z,97894.53
2023-01-30T18:28:02.991Z,97894.56
2023-01-30T18:30:06.335Z,97897.94
2023-01-30T18:32:08.946Z,97903.09
2023-01-30T18:34:12.353Z,97915.16
2023-01-30T18:36:17.356Z,97915.16
2023-01-30T18:38:21.254Z,97915.97
2023-01-30T18:40:24.707Z,97922.03
2023-01-30T18:42:27.313Z,97919.47
2023-01-30T18:44:29.869Z,97926.31
2023-01-30T18:46:33.605Z,97930.66
2023-01-30T18:48:36.959Z,97915.19
2023-01-30T18:50:39.542Z,97917.69
2023-01-30T18:52:42.096Z,97922.03
2023-01-30T18:54:45.971Z,97917.72
2023-01-30T18:56:48.555Z,97921.19
2023-01-30T18:58:52.315Z,97916.94
2023-01-30T19:00:54.909Z,97920.34
2023-01-30T19:02:57.522Z,97921.16
2023-01-30T19:05:00.129Z,97930.59
2023-01-30T19:07:02.727Z,97926.38
2023-01-30T19:09:06.349Z,97927.16
2023-01-30T19:11:29.413Z,97930.59
2023-01-30T19:13:37.312Z,97939.22
2023-01-30T19:15:42.363Z,97945.22
2023-01-30T19:17:47.858Z,97943.53
2023-01-30T19:19:50.403Z,97937.50
2023-01-30T19:21:53.318Z,97946.94
2023-01-30T19:23:56.363Z,97952.97
2023-01-30T19:26:00.893Z,97953.78
2023-01-30T19:28:06.486Z,97961.53
2023-01-30T19:30:13.083Z,97960.66
2023-01-30T19:32:15.647Z,97973.53
2023-01-30T19:34:18.672Z,97986.41
2023-01-30T19:36:23.305Z,97988.13
2023-01-30T19:38:25.932Z,97990.63
2023-01-30T19:40:28.563Z,97994.88
2023-01-30T19:42:31.130Z,97998.28
2023-01-30T19:44:35.043Z,98005.09
2023-01-30T19:46:37.709Z,97999.09
2023-01-30T19:48:41.235Z,98007.75
2023-01-30T19:50:43.767Z,98004.38
2023-01-30T19:52:47.267Z,98003.50
2023-01-30T19:54:49.783Z,98011.22
2023-01-30T19:56:52.375Z,98015.50
2023-01-30T19:58:57.122Z,98012.94
2023-01-30T20:01:07.370Z,98015.56
2023-01-30T20:03:12.748Z,98021.53
2023-01-30T20:05:16.006Z,98016.41
2023-01-30T20:07:18.556Z,98017.28
2023-01-30T20:09:21.140Z,98010.44
2023-01-30T20:11:23.789Z,98017.25
2023-01-30T20:13:26.416Z,98015.56
2023-01-30T20:15:29.225Z,98021.56
2023-01-30T20:17:35.016Z,98021.72
2023-01-30T20:19:37.668Z,98031.97
2023-01-30T20:21:40.225Z,98031.16
2023-01-30T20:23:44.769Z,98024.25
2023-01-30T20:25:48.642Z,98027.63
2023-01-30T20:27:51.199Z,98039.75
2023-01-30T20:29:53.753Z,98040.59
2023-01-30T20:31:56.401Z,98033.69
2023-01-30T20:34:01.939Z,98036.28
2023-01-30T20:36:05.977Z,98032.91
2023-01-30T20:38:08.672Z,98030.28
2023-01-30T20:40:12.474Z,98032.03
2023-01-30T20:42:15.847Z,98031.97
2023-01-30T20:44:20.453Z,98032.84
2023-01-30T20:46:24.615Z,98021.66
2023-01-30T20:48:27.234Z,98024.31
2023-01-30T20:50:31.131Z,98027.72
2023-01-30T20:52:33.717Z,98029.41
2023-01-30T20:54:37.205Z,98047.44
2023-01-30T20:56:43.660Z,98040.53
2023-01-30T20:58:46.811Z,98036.25
2023-01-30T21:00:49.399Z,98034.59
2023-01-30T21:02:53.041Z,98044.94
2023-01-30T21:04:55.566Z,98050.03
2023-01-30T21:06:59.471Z,98054.41
2023-01-30T21:09:03.759Z,98053.47
2023-01-30T21:11:08.705Z,98060.34
2023-01-30T21:13:11.292Z,98063.75
2023-01-30T21:15:13.945Z,98063.00
2023-01-30T21:17:16.536Z,98061.25
2023-01-30T21:19:19.274Z,98075.84
2023-01-30T21:21:24.922Z,98071.53
2023-01-30T21:23:29.473Z,98078.44
2023-01-30T21:25:32.303Z,98086.16
2023-01-30T21:27:34.879Z,98079.38
2023-01-30T21:29:37.891Z,98086.22
2023-01-30T21:31:41.520Z,98086.09
2023-01-30T21:33:44.710Z,98077.59
2023-01-30T21:35:47.290Z,98078.44
2023-01-30T21:38:07.259Z,98081.88
2023-01-30T21:40:32.898Z,98080.94
2023-01-30T21:42:53.660Z,98081.06
2023-01-30T21:44:56.204Z,98084.41
2023-01-30T21:46:58.808Z,98083.59
2023-01-30T21:49:01.345Z,98082.69
2023-01-30T21:51:11.786Z,98085.31
2023-01-30T21:53:14.357Z,98086.22
2023-01-30T21:55:18.668Z,98085.34
2023-01-30T21:57:21.507Z,98093.06
2023-01-30T21:59:24.035Z,98103.38
2023-01-30T22:01:27.010Z,98110.97
2023-01-30T22:03:29.643Z,98109.28
2023-01-30T22:05:36.551Z,98110.28
2023-01-30T22:07:39.897Z,98101.69
2023-01-30T22:09:42.445Z,98106.81
2023-01-30T22:11:46.378Z,98101.63
2023-01-30T22:13:49.226Z,98108.47
2023-01-30T22:15:51.776Z,98105.88
2023-01-30T22:17:54.420Z,98109.28
2023-01-30T22:19:57.010Z,98114.44
2023-01-30T22:21:59.548Z,98118.69
2023-01-30T22:24:03.521Z,98119.53
2023-01-30T22:26:06.707Z,98123.03
2023-01-30T22:28:10.592Z,98125.63
2023-01-30T22:30:13.761Z,98118.78
2023-01-30T22:32:16.299Z,98132.47
2023-01-30T22:34:19.046Z,98126.44
2023-01-30T22:36:24.015Z,98123.88
2023-01-30T22:38:27.452Z,98121.25
2023-01-30T22:40:29.988Z,98128.13
2023-01-30T22:42:32.566Z,98122.06
2023-01-30T22:44:36.406Z,98117.78
2023-01-30T22:46:41.279Z,98117.78
2023-01-30T22:48:44.405Z,98126.28
2023-01-30T22:50:46.972Z,98123.69
2023-01-30T22:52:49.498Z,98136.59
2023-01-30T22:54:52.078Z,98134.88
2023-01-30T22:56:54.696Z,98139.31
2023-01-30T22:58:57.865Z,98136.72
2023-01-30T23:01:14.785Z,98141.81
2023-01-30T23:03:17.330Z,98130.72
2023-01-30T23:05:20.309Z,98135.03
2023-01-30T23:07:23.080Z,98136.78
2023-01-30T23:09:25.600Z,98135.13
2023-01-30T23:11:30.983Z,98126.53
2023-01-30T23:13:32.643Z,98137.69
2023-01-30T23:15:39.073Z,98131.66
2023-01-30T23:18:00.843Z,98137.69
2023-01-30T23:20:03.366Z,98129.94
2023-01-30T23:22:05.894Z,98123.84
2023-01-30T23:24:11.296Z,98125.56
2023-01-30T23:26:14.207Z,98129.00
2023-01-30T23:28:16.872Z,98132.47
2023-01-30T23:30:19.402Z,98121.34
2023-01-30T23:32:23.509Z,98115.38
2023-01-30T23:34:27.426Z,98118.84
2023-01-30T23:36:30.795Z,98117.91
2023-01-30T23:38:33.227Z,98118.78
2023-01-30T23:40:35.826Z,98114.44
2023-01-30T23:42:38.827Z,98121.25
2023-01-30T23:44:41.426Z,98116.19
2023-01-30T23:46:43.991Z,98114.50
2023-01-30T23:48:48.161Z,98110.97
2023-01-30T23:50:52.098Z,98114.44
2023-01-30T23:52:54.662Z,98115.25
2023-01-30T23:54:57.211Z,98115.31
2023-01-30T23:56:59.805Z,98111.03
2023-01-30T23:59:03.185Z,98119.66
